sensor_id;sensor_type;location;lat;lon;timestamp;temperature;humidity
26589;DHT22;14235;48.532;8.722;2023-04-01T00:01:35;9.60;99.90
26589;DHT22;14235;48.532;8.722;2023-04-01T00:04:01;9.50;99.90
26589;DHT22;14235;48.532;8.722;2023-04-01T00:06:27;10.00;99.90
26589;DHT22;14235;48.532;8.722;2023-04-01T00:08:53;9.50;99.90
26589;DHT22;14235;48.532;8.722;2023-04-01T00:11:19;10.00;99.90
26589;DHT22;14235;48.532;8.722;2023-04-01T00:13:45;9.40;99.90
26589;DHT22;14235;48.532;8.722;2023-04-01T00:16:11;9.40;99.90
26589;DHT22;14235;48.532;8.722;2023-04-01T00:18:36;9.70;99.90
26589;DHT22;14235;48.532;8.722;2023-04-01T00:21:02;10.40;99.90
26589;DHT22;14235;48.532;8.722;2023-04-01T00:23:28;9.60;99.90
26589;DHT22;14235;48.532;8.722;2023-04-01T00:25:53;9.40;99.90
26589;DHT22;14235;48.532;8.722;2023-04-01T00:28:20;9.40;99.90
26589;DHT22;14235;48.532;8.722;2023-04-01T00:30:45;9.40;99.90
26589;DHT22;14235;48.532;8.722;2023-04-01T00:33:11;9.40;99.90
26589;DHT22;14235;48.532;8.722;2023-04-01T00:35:37;9.60;99.90
26589;DHT22;14235;48.532;8.722;2023-04-01T00:38:03;9.50;99.90
26589;DHT22;14235;48.532;8.722;2023-04-01T00:40:36;9.40;99.90
26589;DHT22;14235;48.532;8.722;2023-04-01T00:43:03;9.50;99.90
26589;DHT22;14235;48.532;8.722;2023-04-01T00:45:37;9.40;99.90
26589;DHT22;14235;48.532;8.722;2023-04-01T00:48:14;10.60;99.90
26589;DHT22;14235;48.532;8.722;2023-04-01T00:50:43;9.40;99.90
26589;DHT22;14235;48.532;8.722;2023-04-01T00:53:09;9.40;99.90
26589;DHT22;14235;48.532;8.722;2023-04-01T00:55:39;9.40;99.90
26589;DHT22;14235;48.532;8.722;2023-04-01T00:58:11;9.70;99.90
26589;DHT22;14235;48.532;8.722;2023-04-01T01:00:38;9.50;99.90
26589;DHT22;14235;48.532;8.722;2023-04-01T01:03:04;9.40;99.90
26589;DHT22;14235;48.532;8.722;2023-04-01T01:08:39;9.60;99.90
26589;DHT22;14235;48.532;8.722;2023-04-01T01:11:11;9.60;99.90
26589;DHT22;14235;48.532;8.722;2023-04-01T01:13:49;9.80;99.90
26589;DHT22;14235;48.532;8.722;2023-04-01T01:16:46;9.40;99.90
26589;DHT22;14235;48.532;8.722;2023-04-01T01:27:22;9.40;99.90
26589;DHT22;14235;48.532;8.722;2023-04-01T01:32:45;9.40;99.90
26589;DHT22;14235;48.532;8.722;2023-04-01T01:35:33;9.20;99.90
26589;DHT22;14235;48.532;8.722;2023-04-01T01:38:07;9.40;99.90
26589;DHT22;14235;48.532;8.722;2023-04-01T01:40:34;9.30;99.90
26589;DHT22;14235;48.532;8.722;2023-04-01T01:43:05;9.20;99.90
26589;DHT22;14235;48.532;8.722;2023-04-01T01:45:36;9.40;99.90
26589;DHT22;14235;48.532;8.722;2023-04-01T01:48:05;9.40;99.90
26589;DHT22;14235;48.532;8.722;2023-04-01T01:50:32;9.30;99.90
26589;DHT22;14235;48.532;8.722;2023-04-01T01:53:09;9.30;99.90
26589;DHT22;14235;48.532;8.722;2023-04-01T01:55:37;9.30;99.90
26589;DHT22;14235;48.532;8.722;2023-04-01T01:58:16;9.30;99.90
26589;DHT22;14235;48.532;8.722;2023-04-01T02:00:45;9.30;99.90
26589;DHT22;14235;48.532;8.722;2023-04-01T02:03:13;9.30;99.90
26589;DHT22;14235;48.532;8.722;2023-04-01T02:05:40;9.30;99.90
26589;DHT22;14235;48.532;8.722;2023-04-01T02:08:21;9.30;99.90
26589;DHT22;14235;48.532;8.722;2023-04-01T02:11:05;9.20;99.90
26589;DHT22;14235;48.532;8.722;2023-04-01T02:16:05;9.30;99.90
26589;DHT22;14235;48.532;8.722;2023-04-01T02:18:34;9.20;99.90
26589;DHT22;14235;48.532;8.722;2023-04-01T02:21:01;9.20;99.90
26589;DHT22;14235;48.532;8.722;2023-04-01T02:23:27;9.20;99.90
26589;DHT22;14235;48.532;8.722;2023-04-01T02:25:54;9.20;99.90
26589;DHT22;14235;48.532;8.722;2023-04-01T02:28:45;9.20;99.90
26589;DHT22;14235;48.532;8.722;2023-04-01T02:31:13;9.20;99.90
26589;DHT22;14235;48.532;8.722;2023-04-01T02:33:40;9.10;99.90
26589;DHT22;14235;48.532;8.722;2023-04-01T02:36:09;9.20;99.90
26589;DHT22;14235;48.532;8.722;2023-04-01T02:38:36;9.10;99.90
26589;DHT22;14235;48.532;8.722;2023-04-01T02:41:02;9.10;99.90
26589;DHT22;14235;48.532;8.722;2023-04-01T02:43:28;9.10;99.90
26589;DHT22;14235;48.532;8.722;2023-04-01T02:45:54;9.10;99.90
26589;DHT22;14235;48.532;8.722;2023-04-01T02:48:20;9.00;99.90
26589;DHT22;14235;48.532;8.722;2023-04-01T02:50:46;9.00;99.90
26589;DHT22;14235;48.532;8.722;2023-04-01T02:53:11;9.00;99.90
26589;DHT22;14235;48.532;8.722;2023-04-01T02:55:37;9.00;99.90
26589;DHT22;14235;48.532;8.722;2023-04-01T02:58:03;9.00;99.90
26589;DHT22;14235;48.532;8.722;2023-04-01T03:00:29;9.00;99.90
26589;DHT22;14235;48.532;8.722;2023-04-01T03:02:55;9.00;99.90
26589;DHT22;14235;48.532;8.722;2023-04-01T03:05:23;9.00;99.90
26589;DHT22;14235;48.532;8.722;2023-04-01T03:07:49;8.90;99.90
26589;DHT22;14235;48.532;8.722;2023-04-01T03:10:15;9.00;99.90
26589;DHT22;14235;48.532;8.722;2023-04-01T03:12:40;8.90;99.90
26589;DHT22;14235;48.532;8.722;2023-04-01T03:15:08;8.90;99.90
26589;DHT22;14235;48.532;8.722;2023-04-01T03:17:35;8.90;99.90
26589;DHT22;14235;48.532;8.722;2023-04-01T03:20:00;9.00;99.90
26589;DHT22;14235;48.532;8.722;2023-04-01T03:22:26;9.00;99.90
26589;DHT22;14235;48.532;8.722;2023-04-01T03:24:54;9.00;99.90
26589;DHT22;14235;48.532;8.722;2023-04-01T03:27:20;8.90;99.90
26589;DHT22;14235;48.532;8.722;2023-04-01T03:29:46;9.00;99.90
26589;DHT22;14235;48.532;8.722;2023-04-01T03:32:11;9.00;99.90
26589;DHT22;14235;48.532;8.722;2023-04-01T03:34:37;9.00;99.90
26589;DHT22;14235;48.532;8.722;2023-04-01T03:37:03;9.00;99.90
26589;DHT22;14235;48.532;8.722;2023-04-01T03:39:28;9.00;99.90
26589;DHT22;14235;48.532;8.722;2023-04-01T03:41:54;9.00;99.90
26589;DHT22;14235;48.532;8.722;2023-04-01T03:44:20;9.00;99.90
26589;DHT22;14235;48.532;8.722;2023-04-01T03:46:46;9.00;99.90
26589;DHT22;14235;48.532;8.722;2023-04-01T03:49:12;9.00;99.90
26589;DHT22;14235;48.532;8.722;2023-04-01T03:51:38;9.00;99.90
26589;DHT22;14235;48.532;8.722;2023-04-01T03:54:05;8.90;99.90
26589;DHT22;14235;48.532;8.722;2023-04-01T03:56:31;9.00;99.90
26589;DHT22;14235;48.532;8.722;2023-04-01T03:58:57;8.90;99.90
26589;DHT22;14235;48.532;8.722;2023-04-01T04:01:25;8.90;99.90
26589;DHT22;14235;48.532;8.722;2023-04-01T04:03:51;8.90;99.90
26589;DHT22;14235;48.532;8.722;2023-04-01T04:06:18;9.00;99.90
26589;DHT22;14235;48.532;8.722;2023-04-01T04:08:44;9.00;99.90
26589;DHT22;14235;48.532;8.722;2023-04-01T04:11:10;9.00;99.90
26589;DHT22;14235;48.532;8.722;2023-04-01T04:13:36;9.00;99.90
26589;DHT22;14235;48.532;8.722;2023-04-01T04:16:03;8.90;99.90
26589;DHT22;14235;48.532;8.722;2023-04-01T04:18:29;8.90;99.90
26589;DHT22;14235;48.532;8.722;2023-04-01T04:20:55;9.00;99.90
26589;DHT22;14235;48.532;8.722;2023-04-01T04:23:21;8.90;99.90
26589;DHT22;14235;48.532;8.722;2023-04-01T04:25:54;8.90;99.90
26589;DHT22;14235;48.532;8.722;2023-04-01T04:28:22;9.00;99.90
26589;DHT22;14235;48.532;8.722;2023-04-01T04:30:48;9.00;99.90
26589;DHT22;14235;48.532;8.722;2023-04-01T04:33:14;8.90;99.90
26589;DHT22;14235;48.532;8.722;2023-04-01T04:35:39;8.90;99.90
26589;DHT22;14235;48.532;8.722;2023-04-01T04:38:05;8.70;99.90
26589;DHT22;14235;48.532;8.722;2023-04-01T04:40:31;8.80;99.90
26589;DHT22;14235;48.532;8.722;2023-04-01T04:42:56;8.80;99.90
26589;DHT22;14235;48.532;8.722;2023-04-01T04:45:22;8.90;99.90
26589;DHT22;14235;48.532;8.722;2023-04-01T04:47:50;8.80;99.90
26589;DHT22;14235;48.532;8.722;2023-04-01T04:50:16;8.80;99.90
26589;DHT22;14235;48.532;8.722;2023-04-01T04:52:42;8.80;99.90
26589;DHT22;14235;48.532;8.722;2023-04-01T04:55:08;8.90;99.90
26589;DHT22;14235;48.532;8.722;2023-04-01T04:57:33;8.80;99.90
26589;DHT22;14235;48.532;8.722;2023-04-01T04:59:59;8.90;99.90
26589;DHT22;14235;48.532;8.722;2023-04-01T05:02:25;8.80;99.90
26589;DHT22;14235;48.532;8.722;2023-04-01T05:04:53;8.90;99.90
26589;DHT22;14235;48.532;8.722;2023-04-01T05:07:19;8.90;99.90
26589;DHT22;14235;48.532;8.722;2023-04-01T05:09:45;8.90;99.90
26589;DHT22;14235;48.532;8.722;2023-04-01T05:12:11;8.90;99.90
26589;DHT22;14235;48.532;8.722;2023-04-01T05:14:39;8.90;99.90
26589;DHT22;14235;48.532;8.722;2023-04-01T05:17:12;8.90;99.90
26589;DHT22;14235;48.532;8.722;2023-04-01T05:19:38;8.90;99.90
26589;DHT22;14235;48.532;8.722;2023-04-01T05:22:06;9.00;99.90
26589;DHT22;14235;48.532;8.722;2023-04-01T05:24:35;8.90;99.90
26589;DHT22;14235;48.532;8.722;2023-04-01T05:27:01;8.90;99.90
26589;DHT22;14235;48.532;8.722;2023-04-01T05:29:27;8.90;99.90
26589;DHT22;14235;48.532;8.722;2023-04-01T05:31:53;9.00;99.90
26589;DHT22;14235;48.532;8.722;2023-04-01T05:34:19;8.90;99.90
26589;DHT22;14235;48.532;8.722;2023-04-01T05:36:44;8.90;99.90
26589;DHT22;14235;48.532;8.722;2023-04-01T05:39:10;8.90;99.90
26589;DHT22;14235;48.532;8.722;2023-04-01T05:41:37;8.90;99.90
26589;DHT22;14235;48.532;8.722;2023-04-01T05:44:03;8.80;99.90
26589;DHT22;14235;48.532;8.722;2023-04-01T05:46:30;8.90;99.90
26589;DHT22;14235;48.532;8.722;2023-04-01T05:48:56;8.80;99.90
26589;DHT22;14235;48.532;8.722;2023-04-01T05:51:22;9.00;99.90
26589;DHT22;14235;48.532;8.722;2023-04-01T05:53:48;8.80;99.90
26589;DHT22;14235;48.532;8.722;2023-04-01T05:56:17;8.80;99.90
26589;DHT22;14235;48.532;8.722;2023-04-01T05:58:43;8.80;99.90
26589;DHT22;14235;48.532;8.722;2023-04-01T06:01:10;8.80;99.90
26589;DHT22;14235;48.532;8.722;2023-04-01T06:03:37;8.80;99.90
26589;DHT22;14235;48.532;8.722;2023-04-01T06:06:03;9.00;99.90
26589;DHT22;14235;48.532;8.722;2023-04-01T06:08:31;8.80;99.90
26589;DHT22;14235;48.532;8.722;2023-04-01T06:18:51;8.80;99.90
26589;DHT22;14235;48.532;8.722;2023-04-01T06:23:50;8.70;99.90
26589;DHT22;14235;48.532;8.722;2023-04-01T06:26:34;8.80;99.90
26589;DHT22;14235;48.532;8.722;2023-04-01T06:34:53;8.80;99.90
26589;DHT22;14235;48.532;8.722;2023-04-01T06:40:34;8.70;99.90
26589;DHT22;14235;48.532;8.722;2023-04-01T06:52:12;8.80;99.90
26589;DHT22;14235;48.532;8.722;2023-04-01T06:55:29;8.90;99.90
26589;DHT22;14235;48.532;8.722;2023-04-01T06:58:00;8.90;99.90
26589;DHT22;14235;48.532;8.722;2023-04-01T07:00:35;8.90;99.90
26589;DHT22;14235;48.532;8.722;2023-04-01T07:03:26;8.90;99.90
26589;DHT22;14235;48.532;8.722;2023-04-01T07:06:00;8.90;99.90
26589;DHT22;14235;48.532;8.722;2023-04-01T07:08:28;9.00;99.90
26589;DHT22;14235;48.532;8.722;2023-04-01T07:11:06;9.00;99.90
26589;DHT22;14235;48.532;8.722;2023-04-01T07:13:45;9.00;99.90
26589;DHT22;14235;48.532;8.722;2023-04-01T07:16:36;9.00;99.90
26589;DHT22;14235;48.532;8.722;2023-04-01T07:19:27;9.00;99.90
26589;DHT22;14235;48.532;8.722;2023-04-01T07:22:05;9.10;99.90
26589;DHT22;14235;48.532;8.722;2023-04-01T07:24:37;9.00;99.90
26589;DHT22;14235;48.532;8.722;2023-04-01T07:27:09;9.10;99.90
26589;DHT22;14235;48.532;8.722;2023-04-01T07:29:35;9.20;99.90
26589;DHT22;14235;48.532;8.722;2023-04-01T07:40:12;9.20;99.90
26589;DHT22;14235;48.532;8.722;2023-04-01T07:43:05;9.10;99.90
26589;DHT22;14235;48.532;8.722;2023-04-01T07:45:59;9.10;99.90
26589;DHT22;14235;48.532;8.722;2023-04-01T07:51:31;9.10;99.90
26589;DHT22;14235;48.532;8.722;2023-04-01T07:54:13;9.20;99.90
26589;DHT22;14235;48.532;8.722;2023-04-01T07:59:40;9.00;99.90
26589;DHT22;14235;48.532;8.722;2023-04-01T08:05:25;9.10;99.90
26589;DHT22;14235;48.532;8.722;2023-04-01T08:08:02;9.10;99.90
26589;DHT22;14235;48.532;8.722;2023-04-01T08:13:28;9.10;99.90
26589;DHT22;14235;48.532;8.722;2023-04-01T08:21:28;9.10;99.90
26589;DHT22;14235;48.532;8.722;2023-04-01T08:23:58;9.30;99.90
26589;DHT22;14235;48.532;8.722;2023-04-01T08:26:30;9.10;99.90
26589;DHT22;14235;48.532;8.722;2023-04-01T08:29:13;9.10;99.90
26589;DHT22;14235;48.532;8.722;2023-04-01T08:31:54;9.20;99.90
26589;DHT22;14235;48.532;8.722;2023-04-01T08:34:34;9.20;99.90
26589;DHT22;14235;48.532;8.722;2023-04-01T08:37:09;9.30;99.90
26589;DHT22;14235;48.532;8.722;2023-04-01T08:39:49;9.20;99.90
26589;DHT22;14235;48.532;8.722;2023-04-01T09:08:24;9.50;99.90
26589;DHT22;14235;48.532;8.722;2023-04-01T09:11:16;9.60;99.90
26589;DHT22;14235;48.532;8.722;2023-04-01T09:17:17;9.50;99.90
26589;DHT22;14235;48.532;8.722;2023-04-01T09:30:32;9.80;99.90
26589;DHT22;14235;48.532;8.722;2023-04-01T09:33:27;9.80;99.90
26589;DHT22;14235;48.532;8.722;2023-04-01T09:36:12;9.90;99.90
26589;DHT22;14235;48.532;8.722;2023-04-01T09:38:58;9.90;99.90
26589;DHT22;14235;48.532;8.722;2023-04-01T09:41:32;9.90;99.90
26589;DHT22;14235;48.532;8.722;2023-04-01T09:44:26;9.90;99.90
26589;DHT22;14235;48.532;8.722;2023-04-01T09:47:26;9.90;99.90
26589;DHT22;14235;48.532;8.722;2023-04-01T09:50:04;9.90;99.90
26589;DHT22;14235;48.532;8.722;2023-04-01T09:58:30;9.80;99.90
26589;DHT22;14235;48.532;8.722;2023-04-01T10:20:21;9.90;99.90
26589;DHT22;14235;48.532;8.722;2023-04-01T10:40:38;10.20;99.90
26589;DHT22;14235;48.532;8.722;2023-04-01T10:43:34;10.30;99.90
26589;DHT22;14235;48.532;8.722;2023-04-01T10:57:36;10.20;99.90
26589;DHT22;14235;48.532;8.722;2023-04-01T11:14:17;10.30;99.90
26589;DHT22;14235;48.532;8.722;2023-04-01T11:19:42;10.40;99.90
26589;DHT22;14235;48.532;8.722;2023-04-01T11:47:48;10.60;99.90
26589;DHT22;14235;48.532;8.722;2023-04-01T11:50:30;10.50;99.90
26589;DHT22;14235;48.532;8.722;2023-04-01T11:53:25;10.50;99.90
26589;DHT22;14235;48.532;8.722;2023-04-01T12:06:54;10.50;99.90
26589;DHT22;14235;48.532;8.722;2023-04-01T12:09:44;10.60;99.90
26589;DHT22;14235;48.532;8.722;2023-04-01T12:12:29;10.70;99.90
26589;DHT22;14235;48.532;8.722;2023-04-01T12:15:29;10.70;99.90
26589;DHT22;14235;48.532;8.722;2023-04-01T12:18:10;10.80;99.90
26589;DHT22;14235;48.532;8.722;2023-04-01T12:20:48;10.80;99.90
26589;DHT22;14235;48.532;8.722;2023-04-01T12:26:22;10.80;99.90
26589;DHT22;14235;48.532;8.722;2023-04-01T12:29:05;10.80;99.90
26589;DHT22;14235;48.532;8.722;2023-04-01T12:45:38;10.80;99.90
26589;DHT22;14235;48.532;8.722;2023-04-01T12:48:42;10.90;99.90
26589;DHT22;14235;48.532;8.722;2023-04-01T12:51:35;11.10;99.90
26589;DHT22;14235;48.532;8.722;2023-04-01T13:00:10;11.10;99.90
26589;DHT22;14235;48.532;8.722;2023-04-01T13:08:13;11.30;99.90
26589;DHT22;14235;48.532;8.722;2023-04-01T13:10:46;11.40;99.90
26589;DHT22;14235;48.532;8.722;2023-04-01T13:16:14;11.30;99.90
26589;DHT22;14235;48.532;8.722;2023-04-01T13:21:37;11.20;99.90
26589;DHT22;14235;48.532;8.722;2023-04-01T13:32:32;11.10;99.90
26589;DHT22;14235;48.532;8.722;2023-04-01T13:43:24;11.20;99.90
26589;DHT22;14235;48.532;8.722;2023-04-01T13:57:56;11.10;99.90
26589;DHT22;14235;48.532;8.722;2023-04-01T14:05:38;11.20;99.90
26589;DHT22;14235;48.532;8.722;2023-04-01T14:19:21;11.20;99.90
26589;DHT22;14235;48.532;8.722;2023-04-01T14:25:16;11.00;99.90
26589;DHT22;14235;48.532;8.722;2023-04-01T14:28:11;11.00;99.90
26589;DHT22;14235;48.532;8.722;2023-04-01T14:33:34;11.20;99.90
26589;DHT22;14235;48.532;8.722;2023-04-01T14:36:34;11.10;99.90
26589;DHT22;14235;48.532;8.722;2023-04-01T14:45:02;11.60;99.90
26589;DHT22;14235;48.532;8.722;2023-04-01T14:50:12;12.40;99.90
26589;DHT22;14235;48.532;8.722;2023-04-01T14:52:57;12.30;99.90
26589;DHT22;14235;48.532;8.722;2023-04-01T15:01:07;11.90;99.90
26589;DHT22;14235;48.532;8.722;2023-04-01T15:04:03;11.80;99.90
26589;DHT22;14235;48.532;8.722;2023-04-01T15:09:57;11.50;99.90
26589;DHT22;14235;48.532;8.722;2023-04-01T15:15:23;11.80;99.90
26589;DHT22;14235;48.532;8.722;2023-04-01T15:23:54;12.70;99.90
26589;DHT22;14235;48.532;8.722;2023-04-01T15:26:54;12.40;99.90
26589;DHT22;14235;48.532;8.722;2023-04-01T15:30:04;12.50;99.90
26589;DHT22;14235;48.532;8.722;2023-04-01T15:32:49;12.50;99.90
26589;DHT22;14235;48.532;8.722;2023-04-01T15:41:23;12.20;99.90
26589;DHT22;14235;48.532;8.722;2023-04-01T15:43:51;11.90;99.90
26589;DHT22;14235;48.532;8.722;2023-04-01T16:00:29;11.30;99.90
26589;DHT22;14235;48.532;8.722;2023-04-01T16:14:04;11.50;99.90
26589;DHT22;14235;48.532;8.722;2023-04-01T16:21:58;11.50;99.90
26589;DHT22;14235;48.532;8.722;2023-04-01T16:28:28;11.40;99.90
26589;DHT22;14235;48.532;8.722;2023-04-01T16:30:43;11.50;99.90
26589;DHT22;14235;48.532;8.722;2023-04-01T16:35:56;11.40;99.90
26589;DHT22;14235;48.532;8.722;2023-04-01T16:54:53;11.30;99.90
26589;DHT22;14235;48.532;8.722;2023-04-01T16:57:27;11.20;99.90
26589;DHT22;14235;48.532;8.722;2023-04-01T17:03:21;11.00;99.90
26589;DHT22;14235;48.532;8.722;2023-04-01T17:06:02;11.10;99.90
26589;DHT22;14235;48.532;8.722;2023-04-01T17:11:27;11.00;99.90
26589;DHT22;14235;48.532;8.722;2023-04-01T17:14:17;10.90;99.90
26589;DHT22;14235;48.532;8.722;2023-04-01T17:17:19;10.80;99.90
26589;DHT22;14235;48.532;8.722;2023-04-01T17:20:12;10.80;99.90
26589;DHT22;14235;48.532;8.722;2023-04-01T17:28:10;10.80;99.90
26589;DHT22;14235;48.532;8.722;2023-04-01T17:31:17;10.60;99.90
26589;DHT22;14235;48.532;8.722;2023-04-01T17:36:47;10.60;99.90
26589;DHT22;14235;48.532;8.722;2023-04-01T17:39:38;10.50;99.90
26589;DHT22;14235;48.532;8.722;2023-04-01T17:45:04;10.50;99.90
26589;DHT22;14235;48.532;8.722;2023-04-01T17:47:52;10.60;99.90
26589;DHT22;14235;48.532;8.722;2023-04-01T17:54:00;10.40;99.90
26589;DHT22;14235;48.532;8.722;2023-04-01T17:56:47;10.40;99.90
26589;DHT22;14235;48.532;8.722;2023-04-01T17:59:29;10.40;99.90
26589;DHT22;14235;48.532;8.722;2023-04-01T18:04:58;10.30;99.90
26589;DHT22;14235;48.532;8.722;2023-04-01T18:07:43;10.30;99.90
26589;DHT22;14235;48.532;8.722;2023-04-01T18:10:23;10.30;99.90
26589;DHT22;14235;48.532;8.722;2023-04-01T18:26:59;9.80;99.90
26589;DHT22;14235;48.532;8.722;2023-04-01T18:29:27;9.80;99.90
26589;DHT22;14235;48.532;8.722;2023-04-01T18:37:55;9.80;99.90
26589;DHT22;14235;48.532;8.722;2023-04-01T18:51:23;9.60;99.90
26589;DHT22;14235;48.532;8.722;2023-04-01T18:54:05;9.60;99.90
26589;DHT22;14235;48.532;8.722;2023-04-01T18:56:41;9.50;99.90
26589;DHT22;14235;48.532;8.722;2023-04-01T18:59:25;9.50;99.90
26589;DHT22;14235;48.532;8.722;2023-04-01T19:04:56;9.40;99.90
26589;DHT22;14235;48.532;8.722;2023-04-01T19:13:16;9.20;99.90
26589;DHT22;14235;48.532;8.722;2023-04-01T19:21:35;9.00;99.90
26589;DHT22;14235;48.532;8.722;2023-04-01T19:27:01;9.00;99.90
26589;DHT22;14235;48.532;8.722;2023-04-01T19:32:49;9.00;99.90
26589;DHT22;14235;48.532;8.722;2023-04-01T19:35:35;8.90;99.90
26589;DHT22;14235;48.532;8.722;2023-04-01T19:38:23;8.90;99.90
26589;DHT22;14235;48.532;8.722;2023-04-01T19:43:59;8.80;99.90
26589;DHT22;14235;48.532;8.722;2023-04-01T19:49:56;8.50;99.90
26589;DHT22;14235;48.532;8.722;2023-04-01T19:52:32;8.40;99.90
26589;DHT22;14235;48.532;8.722;2023-04-01T20:10:16;8.00;99.90
26589;DHT22;14235;48.532;8.722;2023-04-01T20:15:36;8.10;99.90
26589;DHT22;14235;48.532;8.722;2023-04-01T20:18:25;8.20;99.90
26589;DHT22;14235;48.532;8.722;2023-04-01T20:21:01;8.10;99.90
26589;DHT22;14235;48.532;8.722;2023-04-01T20:23:43;8.10;99.90
26589;DHT22;14235;48.532;8.722;2023-04-01T20:26:14;8.20;99.90
26589;DHT22;14235;48.532;8.722;2023-04-01T20:42:17;8.30;99.90
26589;DHT22;14235;48.532;8.722;2023-04-01T20:45:24;8.30;99.90
26589;DHT22;14235;48.532;8.722;2023-04-01T20:53:29;8.40;99.90
26589;DHT22;14235;48.532;8.722;2023-04-01T21:15:37;8.40;99.90
26589;DHT22;14235;48.532;8.722;2023-04-01T21:21:36;8.50;99.90
26589;DHT22;14235;48.532;8.722;2023-04-01T21:30:39;8.60;99.90
26589;DHT22;14235;48.532;8.722;2023-04-01T21:44:15;8.70;99.90
26589;DHT22;14235;48.532;8.722;2023-04-01T21:46:59;8.60;99.90
26589;DHT22;14235;48.532;8.722;2023-04-01T21:49:57;8.70;99.90
26589;DHT22;14235;48.532;8.722;2023-04-01T21:58:41;8.60;99.90
26589;DHT22;14235;48.532;8.722;2023-04-01T22:01:45;8.50;99.90
26589;DHT22;14235;48.532;8.722;2023-04-01T22:07:19;8.40;99.90
26589;DHT22;14235;48.532;8.722;2023-04-01T22:10:05;8.30;99.90
26589;DHT22;14235;48.532;8.722;2023-04-01T22:12:47;8.10;99.90
26589;DHT22;14235;48.532;8.722;2023-04-01T22:18:17;8.10;99.90
26589;DHT22;14235;48.532;8.722;2023-04-01T22:20:57;7.90;99.90
26589;DHT22;14235;48.532;8.722;2023-04-01T22:23:51;8.00;99.90
26589;DHT22;14235;48.532;8.722;2023-04-01T22:29:21;7.90;99.90
26589;DHT22;14235;48.532;8.722;2023-04-01T22:40:12;7.90;99.90
26589;DHT22;14235;48.532;8.722;2023-04-01T22:42:51;7.90;99.90
26589;DHT22;14235;48.532;8.722;2023-04-01T22:51:13;7.90;99.90
26589;DHT22;14235;48.532;8.722;2023-04-01T22:56:40;8.00;99.90
26589;DHT22;14235;48.532;8.722;2023-04-01T22:59:42;8.00;99.90
26589;DHT22;14235;48.532;8.722;2023-04-01T23:02:30;8.00;99.90
26589;DHT22;14235;48.532;8.722;2023-04-01T23:04:59;7.90;99.90
26589;DHT22;14235;48.532;8.722;2023-04-01T23:10:39;8.00;99.90
26589;DHT22;14235;48.532;8.722;2023-04-01T23:13:10;7.90;99.90
26589;DHT22;14235;48.532;8.722;2023-04-01T23:15:38;7.80;99.90
26589;DHT22;14235;48.532;8.722;2023-04-01T23:21:06;7.70;99.90
26589;DHT22;14235;48.532;8.722;2023-04-01T23:26:36;7.60;99.90
26589;DHT22;14235;48.532;8.722;2023-04-01T23:29:04;7.50;99.90
26589;DHT22;14235;48.532;8.722;2023-04-01T23:31:38;7.50;99.90
26589;DHT22;14235;48.532;8.722;2023-04-01T23:36:46;7.50;99.90
26589;DHT22;14235;48.532;8.722;2023-04-01T23:39:27;7.60;99.90
26589;DHT22;14235;48.532;8.722;2023-04-01T23:41:58;7.50;99.90
26589;DHT22;14235;48.532;8.722;2023-04-01T23:44:26;7.50;99.90
26589;DHT22;14235;48.532;8.722;2023-04-01T23:46:53;7.40;99.90
26589;DHT22;14235;48.532;8.722;2023-04-01T23:49:33;7.60;99.90
26589;DHT22;14235;48.532;8.722;2023-04-01T23:52:04;7.50;99.90
26589;DHT22;14235;48.532;8.722;2023-04-01T23:54:49;7.50;99.90
26589;DHT22;14235;48.532;8.722;2023-04-01T23:57:24;7.20;99.90
